createdAt,value
2022-11-06T00:02:25.505Z,14.68
2022-11-06T00:08:38.351Z,11.90
2022-11-06T00:14:40.303Z,10.38
2022-11-06T00:20:42.153Z,13.80
2022-11-06T00:26:44.023Z,13.82
2022-11-06T00:32:45.910Z,15.77
2022-11-06T00:38:50.809Z,12.05
2022-11-06T00:44:52.639Z,15.27
2022-11-06T00:50:54.824Z,11.85
2022-11-06T00:56:56.582Z,10.88
2022-11-06T01:02:58.528Z,13.57
2022-11-06T01:09:00.758Z,12.95
2022-11-06T01:15:02.538Z,16.67
2022-11-06T01:21:19.133Z,13.70
2022-11-06T01:27:26.510Z,14.07
2022-11-06T01:39:30.814Z,17.63
2022-11-06T01:45:38.721Z,15.35
2022-11-06T01:52:37.641Z,16.55
2022-11-06T02:04:49.279Z,15.38
2022-11-06T02:10:51.751Z,14.55
2022-11-06T02:16:59.802Z,20.30
2022-11-06T02:23:31.833Z,21.25
2022-11-06T02:29:56.148Z,22.13
2022-11-06T02:36:06.123Z,19.88
2022-11-06T02:42:10.781Z,20.85
2022-11-06T02:48:17.252Z,21.77
2022-11-06T02:54:21.839Z,17.42
2022-11-06T03:00:25.309Z,14.65
2022-11-06T03:06:38.688Z,18.75
2022-11-06T03:13:07.962Z,19.52
2022-11-06T03:19:19.152Z,18.15
2022-11-06T03:25:27.195Z,19.92
2022-11-06T03:31:37.955Z,16.52
2022-11-06T03:37:47.043Z,13.70
2022-11-06T03:43:52.674Z,18.33
2022-11-06T03:50:14.590Z,17.00
2022-11-06T03:56:26.063Z,17.13
2022-11-06T04:02:33.258Z,20.60
2022-11-06T04:08:55.154Z,14.55
2022-11-06T04:14:59.239Z,18.55
2022-11-06T04:21:22.644Z,17.83
2022-11-06T04:27:32.486Z,17.30
2022-11-06T04:33:56.854Z,16.52
2022-11-06T04:40:07.468Z,21.55
2022-11-06T04:46:13.975Z,22.23
2022-11-06T04:52:20.470Z,21.27
2022-11-06T04:58:22.390Z,20.70
2022-11-06T05:04:24.162Z,23.92
2022-11-06T05:10:25.998Z,16.70
2022-11-06T05:16:27.893Z,24.20
2022-11-06T05:22:48.168Z,21.05
2022-11-06T05:28:49.891Z,22.00
2022-11-06T05:34:51.642Z,20.83
2022-11-06T05:40:53.383Z,17.25
2022-11-06T05:46:55.164Z,17.50
2022-11-06T05:52:56.909Z,12.55
2022-11-06T05:58:58.669Z,16.77
2022-11-06T06:05:00.430Z,14.40
2022-11-06T06:11:07.342Z,16.05
2022-11-06T06:17:09.165Z,20.20
2022-11-06T06:23:11.100Z,15.07
2022-11-06T06:29:12.939Z,14.55
2022-11-06T06:35:14.778Z,11.02
2022-11-06T06:41:16.562Z,14.20
2022-11-06T06:47:18.361Z,13.23
2022-11-06T06:53:20.123Z,18.73
2022-11-06T06:59:21.921Z,17.17
2022-11-06T07:05:23.906Z,18.52
2022-11-06T07:11:25.761Z,19.70
2022-11-06T07:17:28.033Z,17.50
2022-11-06T07:23:29.786Z,18.17
2022-11-06T07:29:31.664Z,11.82
2022-11-06T07:35:35.388Z,16.77
2022-11-06T07:41:38.064Z,13.88
2022-11-06T07:47:40.123Z,15.88
2022-11-06T07:53:41.880Z,11.07
2022-11-06T07:59:43.728Z,15.68
2022-11-06T08:05:45.777Z,15.23
2022-11-06T08:11:48.887Z,12.18
2022-11-06T08:17:50.813Z,16.55
2022-11-06T08:23:52.612Z,15.25
2022-11-06T08:29:54.382Z,15.98
2022-11-06T08:35:56.160Z,14.85
2022-11-06T08:41:57.969Z,10.20
2022-11-06T08:48:04.387Z,13.75
2022-11-06T08:54:06.233Z,16.30
2022-11-06T09:00:08.552Z,14.27
2022-11-06T09:06:10.347Z,12.40
2022-11-06T09:12:12.150Z,9.05
2022-11-06T09:18:13.980Z,10.68
2022-11-06T09:24:15.761Z,10.90
2022-11-06T09:30:19.847Z,10.45
2022-11-06T09:36:22.084Z,12.52
2022-11-06T09:43:01.899Z,6.28
2022-11-06T09:49:12.374Z,11.45
2022-11-06T09:55:27.721Z,10.35
2022-11-06T10:01:40.960Z,7.82
2022-11-06T10:07:45.400Z,10.95
2022-11-06T10:14:05.310Z,8.30
2022-11-06T10:20:10.225Z,10.50
2022-11-06T10:26:21.658Z,6.68
2022-11-06T10:32:41.605Z,6.47
2022-11-06T10:38:49.077Z,10.38
2022-11-06T10:45:04.696Z,11.63
2022-11-06T10:51:28.731Z,12.82
2022-11-06T10:57:36.261Z,9.35
2022-11-06T11:03:43.838Z,8.10
2022-11-06T11:09:47.090Z,7.60
2022-11-06T11:15:49.670Z,8.30
2022-11-06T11:22:03.172Z,10.02
2022-11-06T11:28:05.321Z,5.30
2022-11-06T11:34:16.965Z,7.30
2022-11-06T11:40:21.922Z,9.15
2022-11-06T11:46:23.861Z,4.65
2022-11-06T11:52:25.699Z,7.03
2022-11-06T11:58:28.670Z,4.68
2022-11-06T12:04:36.505Z,5.65
2022-11-06T12:10:41.258Z,4.38
2022-11-06T12:16:46.018Z,4.05
2022-11-06T12:22:53.074Z,8.25
2022-11-06T12:29:17.135Z,5.77
2022-11-06T12:35:29.026Z,8.32
2022-11-06T12:41:42.957Z,8.48
2022-11-06T12:48:09.148Z,5.50
2022-11-06T12:54:42.021Z,7.88
2022-11-06T13:00:59.830Z,5.63
2022-11-06T13:07:16.725Z,10.82
2022-11-06T13:13:32.892Z,3.58
2022-11-06T13:19:57.764Z,5.03
2022-11-06T13:26:42.638Z,4.93
2022-11-06T13:32:59.146Z,4.78
2022-11-06T13:39:13.727Z,3.65
2022-11-06T13:45:17.000Z,5.13
2022-11-06T13:51:39.748Z,3.15
2022-11-06T13:58:05.562Z,5.03
2022-11-06T14:04:28.889Z,6.20
2022-11-06T14:10:37.589Z,4.07
2022-11-06T14:16:45.820Z,4.85
2022-11-06T14:22:47.986Z,5.97
2022-11-06T14:28:49.969Z,6.43
2022-11-06T14:34:58.150Z,5.22
2022-11-06T14:41:01.116Z,11.25
2022-11-06T14:47:07.763Z,5.00
2022-11-06T14:53:26.700Z,5.75
2022-11-06T14:59:35.945Z,5.95
2022-11-06T15:05:42.378Z,5.15
2022-11-06T15:11:54.105Z,4.78
2022-11-06T15:18:01.639Z,5.32
2022-11-06T15:24:22.671Z,6.10
2022-11-06T15:30:25.969Z,5.32
2022-11-06T15:36:32.867Z,5.68
2022-11-06T15:42:35.785Z,5.60
2022-11-06T15:48:37.683Z,5.43
2022-11-06T15:54:44.029Z,5.45
2022-11-06T16:00:46.470Z,9.23
2022-11-06T16:06:49.812Z,7.68
2022-11-06T16:12:53.670Z,7.80
2022-11-06T16:18:56.032Z,3.90
2022-11-06T16:25:05.694Z,7.28
2022-11-06T16:31:18.764Z,8.05
2022-11-06T16:37:21.565Z,5.10
2022-11-06T16:43:24.262Z,4.63
2022-11-06T16:49:34.187Z,4.40
2022-11-06T16:55:36.293Z,3.58
2022-11-06T17:01:41.038Z,4.93
2022-11-06T17:07:44.007Z,6.45
2022-11-06T17:13:46.682Z,4.70
2022-11-06T17:19:48.457Z,5.18
2022-11-06T17:25:52.853Z,6.80
2022-11-06T17:31:55.777Z,6.95
2022-11-06T17:37:57.539Z,5.47
2022-11-06T17:44:02.535Z,7.63
2022-11-06T17:50:04.725Z,5.22
2022-11-06T17:56:07.302Z,5.68
2022-11-06T18:02:13.607Z,6.90
2022-11-06T18:08:16.135Z,6.38
2022-11-06T18:14:19.033Z,5.60
2022-11-06T18:20:20.853Z,12.13
2022-11-06T18:26:23.033Z,6.55
2022-11-06T18:32:24.951Z,6.65
2022-11-06T18:38:26.895Z,5.32
2022-11-06T18:44:28.760Z,8.02
2022-11-06T18:50:30.631Z,10.85
2022-11-06T18:56:33.775Z,9.63
2022-11-06T19:02:35.702Z,8.98
2022-11-06T19:08:37.902Z,10.45
2022-11-06T19:14:39.773Z,6.60
2022-11-06T19:20:42.872Z,7.75
2022-11-06T19:26:44.745Z,10.93
2022-11-06T19:32:46.658Z,8.85
2022-11-06T19:38:48.487Z,10.23
2022-11-06T19:44:50.415Z,9.35
2022-11-06T19:50:59.675Z,10.50
2022-11-06T19:57:28.766Z,12.32
2022-11-06T20:03:23.881Z,9.90
2022-11-06T20:09:25.737Z,11.98
2022-11-06T20:15:28.357Z,13.32
2022-11-06T20:21:30.265Z,11.90
2022-11-06T20:27:32.414Z,13.10
2022-11-06T20:33:35.279Z,14.85
2022-11-06T20:39:37.218Z,16.20
2022-11-06T20:45:39.887Z,16.85
2022-11-06T20:52:07.354Z,16.65
2022-11-06T20:58:03.674Z,17.55
2022-11-06T21:04:06.617Z,18.77
2022-11-06T21:10:10.836Z,16.70
2022-11-06T21:16:15.698Z,17.70
2022-11-06T21:22:17.573Z,14.48
2022-11-06T21:28:19.412Z,17.17
2022-11-06T21:34:21.274Z,13.88
2022-11-06T21:40:23.211Z,14.10
2022-11-06T21:46:25.159Z,13.25
2022-11-06T21:52:45.670Z,14.23
2022-11-06T21:58:52.073Z,12.55
2022-11-06T22:04:53.980Z,12.25
2022-11-06T22:10:55.832Z,14.15
2022-11-06T22:16:57.731Z,13.25
2022-11-06T22:22:59.711Z,11.35
2022-11-06T22:29:04.925Z,11.80
2022-11-06T22:35:07.039Z,10.90
2022-11-06T22:41:11.382Z,9.80
2022-11-06T22:47:13.273Z,10.93
2022-11-06T22:53:15.538Z,12.02
2022-11-06T22:59:17.794Z,10.70
2022-11-06T23:05:19.641Z,11.95
2022-11-06T23:11:23.093Z,10.98
2022-11-06T23:17:26.364Z,11.15
2022-11-06T23:23:28.292Z,9.18
2022-11-06T23:29:30.184Z,10.32
2022-11-06T23:35:32.845Z,9.05
2022-11-06T23:41:48.403Z,9.85
2022-11-06T23:47:50.779Z,10.07
2022-11-06T23:53:53.246Z,8.70
2022-11-06T23:59:55.138Z,6.90
